createdAt,value
2023-04-18T00:00:12.366Z,-0.35
2023-04-18T00:02:41.570Z,-0.34
2023-04-18T00:05:09.012Z,-0.32
2023-04-18T00:07:36.253Z,-0.27
2023-04-18T00:10:05.109Z,-0.23
2023-04-18T00:12:34.332Z,-0.19
2023-04-18T00:15:02.099Z,-0.14
2023-04-18T00:17:31.925Z,-0.08
2023-04-18T00:20:02.021Z,-0.06
2023-04-18T00:22:29.622Z,0.03
2023-04-18T00:24:57.027Z,0.16
2023-04-18T00:27:24.763Z,0.40
2023-04-18T00:29:52.217Z,0.77
2023-04-18T00:32:19.446Z,1.55
2023-04-18T00:34:46.835Z,3.40
2023-04-18T00:37:14.045Z,6.07
2023-04-18T00:39:42.159Z,7.90
2023-04-18T00:42:09.828Z,8.56
2023-04-18T00:44:36.852Z,8.78
2023-04-18T00:47:04.089Z,9.04
2023-04-18T00:49:31.646Z,9.73
2023-04-18T00:51:59.069Z,11.46
2023-04-18T00:54:26.068Z,12.84
2023-04-18T00:56:53.512Z,13.95
2023-04-18T00:59:21.303Z,14.64
2023-04-18T01:01:49.158Z,15.24
2023-04-18T01:04:16.794Z,15.88
2023-04-18T01:06:45.402Z,16.27
2023-04-18T01:09:13.936Z,16.26
2023-04-18T01:11:41.486Z,16.10
2023-04-18T01:14:09.670Z,16.43
2023-04-18T01:16:36.795Z,16.56
2023-04-18T01:19:04.375Z,16.84
2023-04-18T01:21:35.774Z,16.69
2023-04-18T01:24:14.350Z,17.71
2023-04-18T01:26:43.396Z,18.28
2023-04-18T01:29:10.788Z,18.21
2023-04-18T01:31:38.576Z,17.77
2023-04-18T01:34:07.467Z,17.60
2023-04-18T01:36:35.958Z,17.97
2023-04-18T01:39:03.347Z,17.63
2023-04-18T01:41:32.997Z,17.41
2023-04-18T01:44:00.877Z,16.58
2023-04-18T01:46:28.842Z,16.24
2023-04-18T01:48:57.102Z,15.29
2023-04-18T01:51:24.707Z,13.06
2023-04-18T01:53:53.737Z,11.66
2023-04-18T01:56:20.953Z,11.90
2023-04-18T01:58:48.281Z,12.08
2023-04-18T02:01:15.745Z,12.08
2023-04-18T02:03:43.663Z,12.26
2023-04-18T02:06:12.981Z,12.45
2023-04-18T02:08:40.646Z,12.20
2023-04-18T02:11:08.024Z,11.56
2023-04-18T02:13:35.309Z,10.59
2023-04-18T02:16:12.422Z,10.96
2023-04-18T02:18:42.731Z,11.33
2023-04-18T02:21:11.053Z,10.94
2023-04-18T02:23:38.118Z,10.89
2023-04-18T02:26:06.511Z,11.02
2023-04-18T02:28:38.977Z,10.96
2023-04-18T02:31:07.695Z,10.80
2023-04-18T02:33:35.031Z,10.77
2023-04-18T02:36:02.434Z,11.30
2023-04-18T02:38:29.696Z,11.10
2023-04-18T02:40:57.394Z,10.77
2023-04-18T02:43:24.406Z,10.54
2023-04-18T02:45:51.974Z,10.17
2023-04-18T02:48:20.366Z,9.96
2023-04-18T02:50:47.803Z,9.81
2023-04-18T02:53:16.785Z,9.49
2023-04-18T02:55:53.801Z,9.17
2023-04-18T02:58:26.061Z,8.84
2023-04-18T03:01:09.966Z,8.39
2023-04-18T03:03:51.306Z,7.97
2023-04-18T03:06:44.450Z,7.36
2023-04-18T03:09:11.991Z,7.07
2023-04-18T03:11:44.783Z,6.61
2023-04-18T03:14:13.244Z,6.28
2023-04-18T03:16:48.279Z,6.16
2023-04-18T03:19:20.166Z,6.04
2023-04-18T03:21:47.930Z,5.83
2023-04-18T03:24:15.388Z,5.69
2023-04-18T03:26:46.404Z,5.69
2023-04-18T03:29:13.763Z,5.79
2023-04-18T03:31:44.559Z,5.79
2023-04-18T03:34:12.387Z,5.78
2023-04-18T03:36:40.086Z,5.83
2023-04-18T03:39:07.213Z,5.87
2023-04-18T03:41:35.039Z,5.87
2023-04-18T03:44:03.209Z,5.90
2023-04-18T03:46:34.540Z,5.86
2023-04-18T03:49:03.141Z,5.89
2023-04-18T03:51:32.737Z,5.86
2023-04-18T03:54:00.042Z,5.79
2023-04-18T03:56:27.368Z,5.87
2023-04-18T03:58:55.954Z,5.91
2023-04-18T04:01:23.362Z,6.04
2023-04-18T04:03:52.809Z,6.00
2023-04-18T04:06:21.732Z,5.98
2023-04-18T04:08:48.907Z,5.96
2023-04-18T04:11:21.874Z,5.90
2023-04-18T04:13:49.338Z,5.79
2023-04-18T04:16:20.155Z,5.70
2023-04-18T04:18:49.756Z,5.71
2023-04-18T04:21:21.262Z,5.72
2023-04-18T04:23:51.797Z,5.68
2023-04-18T04:26:35.424Z,5.63
2023-04-18T04:29:11.620Z,5.60
2023-04-18T04:31:39.840Z,5.54
2023-04-18T04:34:08.544Z,5.56
2023-04-18T04:36:36.613Z,5.40
2023-04-18T04:39:06.256Z,5.41
2023-04-18T04:41:47.013Z,5.31
2023-04-18T04:44:17.656Z,5.24
2023-04-18T04:46:45.071Z,5.16
2023-04-18T04:49:19.292Z,5.19
2023-04-18T04:51:46.775Z,5.09
2023-04-18T04:54:14.063Z,4.96
2023-04-18T04:56:42.025Z,4.72
2023-04-18T04:59:09.373Z,4.64
2023-04-18T05:01:40.885Z,4.49
2023-04-18T05:04:08.431Z,4.31
2023-04-18T05:06:35.786Z,4.11
2023-04-18T05:09:03.266Z,3.94
2023-04-18T05:11:30.359Z,3.73
2023-04-18T05:13:57.805Z,3.61
2023-04-18T05:16:25.178Z,3.52
2023-04-18T05:18:52.742Z,3.29
2023-04-18T05:21:19.815Z,3.08
2023-04-18T05:23:47.223Z,2.96
2023-04-18T05:26:14.400Z,2.87
2023-04-18T05:28:41.850Z,2.74
2023-04-18T05:31:08.964Z,2.62
2023-04-18T05:33:36.411Z,2.54
2023-04-18T05:36:03.944Z,2.56
2023-04-18T05:38:31.268Z,2.61
2023-04-18T05:41:00.160Z,2.58
2023-04-18T05:43:27.230Z,2.56
2023-04-18T05:45:55.913Z,2.50
2023-04-18T05:48:25.305Z,2.47
2023-04-18T05:50:53.050Z,2.52
2023-04-18T05:53:20.639Z,2.57
2023-04-18T05:55:48.678Z,2.57
2023-04-18T05:58:15.815Z,2.55
2023-04-18T06:00:43.109Z,2.50
2023-04-18T06:03:11.305Z,2.42
2023-04-18T06:05:41.044Z,2.20
2023-04-18T06:08:08.595Z,2.12
2023-04-18T06:10:37.659Z,2.19
2023-04-18T06:13:06.266Z,2.22
2023-04-18T06:15:35.389Z,2.26
2023-04-18T06:18:02.441Z,2.24
2023-04-18T06:20:30.118Z,2.20
2023-04-18T06:22:57.201Z,2.08
2023-04-18T06:25:25.113Z,2.09
2023-04-18T06:27:52.329Z,2.09
2023-04-18T06:30:21.567Z,2.08
2023-04-18T06:32:49.140Z,2.05
2023-04-18T06:35:16.898Z,2.00
2023-04-18T06:37:44.717Z,1.96
2023-04-18T06:40:12.346Z,2.04
2023-04-18T06:42:40.027Z,2.14
2023-04-18T06:45:07.962Z,2.06
2023-04-18T06:47:35.736Z,2.13
2023-04-18T06:50:02.951Z,2.21
2023-04-18T06:52:30.790Z,2.49
2023-04-18T06:54:58.164Z,2.73
2023-04-18T06:57:25.852Z,2.82
2023-04-18T06:59:52.978Z,2.86
2023-04-18T07:02:20.543Z,2.83
2023-04-18T07:04:47.989Z,2.88
2023-04-18T07:07:15.478Z,2.85
2023-04-18T07:09:42.959Z,2.60
2023-04-18T07:12:10.000Z,2.41
2023-04-18T07:14:37.351Z,2.35
2023-04-18T07:17:04.973Z,2.44
2023-04-18T07:19:32.716Z,2.53
2023-04-18T07:22:00.439Z,2.65
2023-04-18T07:24:27.599Z,2.64
2023-04-18T07:26:55.215Z,2.79
2023-04-18T07:29:22.839Z,2.91
2023-04-18T07:31:50.433Z,3.00
2023-04-18T07:34:18.356Z,3.18
2023-04-18T07:36:45.885Z,3.10
2023-04-18T07:39:13.521Z,3.09
2023-04-18T07:41:40.860Z,3.10
2023-04-18T07:44:08.282Z,2.94
2023-04-18T07:46:35.669Z,2.85
2023-04-18T07:49:03.289Z,2.74
2023-04-18T07:51:34.962Z,2.55
2023-04-18T07:54:02.078Z,2.42
2023-04-18T07:56:30.011Z,2.25
2023-04-18T07:58:57.022Z,2.11
2023-04-18T08:01:24.603Z,1.96
2023-04-18T08:03:53.279Z,1.81
2023-04-18T08:06:21.434Z,1.68
2023-04-18T08:08:48.887Z,1.68
2023-04-18T08:11:16.433Z,1.69
2023-04-18T08:13:43.786Z,1.70
2023-04-18T08:16:11.184Z,1.63
2023-04-18T08:18:38.540Z,1.59
2023-04-18T08:21:06.452Z,1.42
2023-04-18T08:23:33.469Z,1.37
2023-04-18T08:26:00.990Z,1.33
2023-04-18T08:28:28.392Z,1.34
2023-04-18T08:30:56.270Z,1.16
2023-04-18T08:33:24.488Z,1.09
2023-04-18T08:35:51.774Z,1.06
2023-04-18T08:38:18.982Z,1.01
2023-04-18T08:40:46.758Z,1.03
2023-04-18T08:43:15.023Z,0.97
2023-04-18T08:45:43.032Z,0.98
2023-04-18T08:48:14.017Z,0.93
2023-04-18T08:50:41.946Z,0.91
2023-04-18T08:53:09.260Z,0.93
2023-04-18T08:55:36.842Z,0.90
2023-04-18T08:58:06.865Z,0.89
2023-04-18T09:00:34.874Z,0.95
2023-04-18T09:03:03.172Z,0.98
2023-04-18T09:05:31.117Z,1.04
2023-04-18T09:07:58.893Z,1.06
2023-04-18T09:10:32.667Z,1.09
2023-04-18T09:13:02.787Z,1.13
2023-04-18T09:15:30.420Z,1.23
2023-04-18T09:17:59.061Z,1.32
2023-04-18T09:20:34.236Z,1.49
2023-04-18T09:23:05.915Z,1.70
2023-04-18T09:25:52.340Z,1.72
2023-04-18T09:28:29.782Z,1.61
2023-04-18T09:30:58.489Z,1.56
2023-04-18T09:33:33.679Z,1.57
2023-04-18T09:36:20.933Z,1.63
2023-04-18T09:38:48.519Z,1.75
2023-04-18T09:41:18.496Z,1.88
2023-04-18T09:43:48.272Z,2.04
2023-04-18T09:46:17.455Z,2.29
2023-04-18T09:48:45.538Z,2.73
2023-04-18T09:51:16.060Z,2.99
2023-04-18T09:53:51.038Z,3.09
2023-04-18T09:56:25.970Z,2.89
2023-04-18T09:58:57.059Z,2.80
2023-04-18T10:01:27.577Z,2.99
2023-04-18T10:03:55.035Z,3.13
2023-04-18T10:06:22.515Z,3.14
2023-04-18T10:08:49.614Z,3.24
2023-04-18T10:11:18.622Z,3.32
2023-04-18T10:13:48.209Z,3.48
2023-04-18T10:16:16.634Z,3.38
2023-04-18T10:18:44.224Z,3.19
2023-04-18T10:21:11.879Z,2.97
2023-04-18T10:23:39.317Z,2.94
2023-04-18T10:26:10.574Z,3.04
2023-04-18T10:28:56.803Z,3.13
2023-04-18T10:31:28.095Z,2.87
2023-04-18T10:36:29.036Z,2.34
2023-04-18T10:39:04.719Z,2.13
2023-04-18T10:41:33.290Z,1.92
2023-04-18T10:44:08.486Z,1.76
2023-04-18T10:46:40.965Z,1.64
2023-04-18T10:49:26.226Z,1.49
2023-04-18T10:51:58.553Z,1.37
2023-04-18T10:54:30.808Z,1.25
2023-04-18T10:56:59.343Z,1.12
2023-04-18T10:59:26.951Z,1.07
2023-04-18T11:02:03.289Z,1.05
2023-04-18T11:04:31.161Z,0.96
2023-04-18T11:06:58.548Z,0.92
2023-04-18T11:09:26.126Z,0.81
2023-04-18T11:12:06.958Z,0.76
2023-04-18T11:14:44.019Z,0.70
2023-04-18T11:17:18.504Z,0.57
2023-04-18T11:19:45.964Z,0.52
2023-04-18T11:22:13.716Z,0.45
2023-04-18T11:24:40.737Z,0.43
2023-04-18T11:27:11.789Z,0.42
2023-04-18T11:29:39.160Z,0.43
2023-04-18T11:32:07.664Z,0.39
2023-04-18T11:34:35.592Z,0.43
2023-04-18T11:37:07.202Z,0.42
2023-04-18T11:39:36.112Z,0.42
2023-04-18T11:42:03.204Z,0.35
2023-04-18T11:44:30.954Z,0.28
2023-04-18T11:46:58.198Z,0.11
2023-04-18T11:49:29.885Z,-0.02
2023-04-18T11:51:57.121Z,-0.13
2023-04-18T11:54:54.091Z,-0.21
2023-04-18T11:57:25.987Z,-0.29
2023-04-18T11:59:55.462Z,-0.40
2023-04-18T12:02:23.720Z,-0.50
2023-04-18T12:04:52.967Z,-0.53
2023-04-18T12:07:30.859Z,-0.62
2023-04-18T12:09:58.677Z,-0.71
2023-04-18T12:12:26.206Z,-0.76
2023-04-18T12:15:13.734Z,-0.82
2023-04-18T12:17:44.010Z,-0.89
2023-04-18T12:20:13.159Z,-1.02
2023-04-18T12:22:41.922Z,-1.04
2023-04-18T12:25:25.907Z,-1.12
2023-04-18T12:28:17.482Z,-1.19
2023-04-18T12:30:45.121Z,-1.27
2023-04-18T12:33:12.252Z,-1.32
2023-04-18T12:35:39.398Z,-1.41
2023-04-18T12:38:07.025Z,-1.44
2023-04-18T12:40:34.155Z,-1.47
2023-04-18T12:43:03.542Z,-1.51
2023-04-18T12:45:31.276Z,-1.56
2023-04-18T12:47:58.577Z,-1.60
2023-04-18T12:50:26.665Z,-1.64
2023-04-18T12:52:54.511Z,-1.70
2023-04-18T12:55:22.911Z,-1.74
2023-04-18T12:57:57.596Z,-1.85
2023-04-18T13:00:29.522Z,-1.86
2023-04-18T13:02:57.306Z,-1.91
2023-04-18T13:05:27.330Z,-1.96
2023-04-18T13:08:08.651Z,-2.01
2023-04-18T13:10:40.613Z,-2.06
2023-04-18T13:13:07.636Z,-2.09
2023-04-18T13:15:34.856Z,-2.12
2023-04-18T13:18:04.758Z,-2.14
2023-04-18T13:20:33.155Z,-2.15
2023-04-18T13:23:01.779Z,-2.14
2023-04-18T13:25:28.921Z,-2.20
2023-04-18T13:27:58.433Z,-2.21
2023-04-18T13:30:25.999Z,-2.20
2023-04-18T13:32:53.634Z,-2.25
2023-04-18T13:35:20.858Z,-2.26
2023-04-18T13:37:48.212Z,-2.29
2023-04-18T13:40:15.881Z,-2.31
2023-04-18T13:42:43.230Z,-2.31
2023-04-18T13:45:12.594Z,-2.34
2023-04-18T13:47:39.806Z,-2.38
2023-04-18T13:50:07.865Z,-2.35
2023-04-18T13:52:35.976Z,-2.34
2023-04-18T13:55:03.992Z,-2.36
2023-04-18T13:57:34.381Z,-2.32
2023-04-18T14:00:01.887Z,-2.38
2023-04-18T14:02:40.437Z,-2.43
2023-04-18T14:05:08.615Z,-2.40
2023-04-18T14:07:37.957Z,-2.37
2023-04-18T14:10:06.032Z,-2.41
2023-04-18T14:12:34.078Z,-2.40
2023-04-18T14:15:01.345Z,-2.37
2023-04-18T14:17:28.796Z,-2.37
2023-04-18T14:19:55.945Z,-2.38
2023-04-18T14:22:23.411Z,-2.36
2023-04-18T14:24:52.177Z,-2.36
2023-04-18T14:27:19.627Z,-2.39
2023-04-18T14:29:48.580Z,-2.36
2023-04-18T14:32:16.265Z,-2.35
2023-04-18T14:34:43.796Z,-2.37
2023-04-18T14:37:10.854Z,-2.38
2023-04-18T14:39:38.430Z,-2.41
2023-04-18T14:42:06.043Z,-2.36
2023-04-18T14:44:33.435Z,-2.36
2023-04-18T14:47:01.417Z,-2.32
2023-04-18T14:49:28.628Z,-2.33
2023-04-18T14:51:55.824Z,-2.30
2023-04-18T14:54:23.111Z,-2.32
2023-04-18T14:56:50.690Z,-2.29
2023-04-18T14:59:18.020Z,-2.27
2023-04-18T15:01:45.685Z,-2.24
2023-04-18T15:04:13.328Z,-2.20
2023-04-18T15:06:41.292Z,-2.16
2023-04-18T15:09:08.828Z,-2.13
2023-04-18T15:11:36.126Z,-2.13
2023-04-18T15:14:03.270Z,-2.13
2023-04-18T15:16:31.862Z,-2.11
2023-04-18T15:19:00.138Z,-2.07
2023-04-18T15:21:27.416Z,-2.06
2023-04-18T15:23:54.473Z,-2.05
2023-04-18T15:26:22.134Z,-2.07
2023-04-18T15:28:49.195Z,-2.06
2023-04-18T15:31:16.547Z,-2.02
2023-04-18T15:33:43.606Z,-2.00
2023-04-18T15:36:10.793Z,-2.00
2023-04-18T15:38:37.974Z,-2.02
2023-04-18T15:41:06.638Z,-2.01
2023-04-18T15:43:33.831Z,-2.02
2023-04-18T15:46:00.906Z,-2.04
2023-04-18T15:48:30.374Z,-2.06
2023-04-18T15:50:58.352Z,-2.08
2023-04-18T15:53:25.840Z,-2.18
2023-04-18T15:55:53.631Z,-2.17
2023-04-18T15:58:27.752Z,-2.17
2023-04-18T16:00:55.686Z,-2.16
2023-04-18T16:03:24.719Z,-2.18
2023-04-18T16:05:52.219Z,-2.15
2023-04-18T16:08:19.854Z,-2.15
2023-04-18T16:10:46.896Z,-2.17
2023-04-18T16:13:14.517Z,-2.18
2023-04-18T16:15:42.444Z,-2.20
2023-04-18T16:18:10.057Z,-2.24
2023-04-18T16:20:37.259Z,-2.25
2023-04-18T16:23:04.360Z,-2.26
2023-04-18T16:25:31.732Z,-2.27
2023-04-18T16:27:58.848Z,-2.27
2023-04-18T16:30:26.192Z,-2.25
2023-04-18T16:32:54.039Z,-2.29
2023-04-18T16:35:21.658Z,-2.30
2023-04-18T16:37:48.824Z,-2.32
2023-04-18T16:40:16.017Z,-2.37
2023-04-18T16:42:43.424Z,-2.38
2023-04-18T16:45:11.146Z,-2.39
2023-04-18T16:47:38.390Z,-2.41
2023-04-18T16:50:07.231Z,-2.44
2023-04-18T16:52:34.454Z,-2.47
2023-04-18T16:55:01.875Z,-2.45
2023-04-18T16:57:29.626Z,-2.42
2023-04-18T16:59:57.995Z,-2.40
2023-04-18T17:02:25.739Z,-2.41
2023-04-18T17:04:52.917Z,-2.42
2023-04-18T17:07:20.012Z,-2.41
2023-04-18T17:09:46.969Z,-2.39
2023-04-18T17:12:14.503Z,-2.35
2023-04-18T17:14:41.608Z,-2.41
2023-04-18T17:17:09.338Z,-2.41
2023-04-18T17:19:36.456Z,-2.38
2023-04-18T17:22:03.799Z,-2.32
2023-04-18T17:24:30.859Z,-2.28
2023-04-18T17:26:58.256Z,-2.22
2023-04-18T17:29:26.591Z,-2.19
2023-04-18T17:31:54.191Z,-2.18
2023-04-18T17:34:21.693Z,-2.21
2023-04-18T17:36:49.010Z,-2.18
2023-04-18T17:39:17.164Z,-2.15
2023-04-18T17:41:44.749Z,-2.13
2023-04-18T17:44:12.398Z,-2.08
2023-04-18T17:46:39.326Z,-2.03
2023-04-18T17:49:07.007Z,-1.99
2023-04-18T17:51:34.122Z,-2.01
2023-04-18T17:54:01.426Z,-2.02
2023-04-18T17:56:30.432Z,-1.97
2023-04-18T17:58:57.561Z,-1.95
2023-04-18T18:01:26.356Z,-1.93
2023-04-18T18:03:53.989Z,-1.88
2023-04-18T18:06:21.351Z,-1.79
2023-04-18T18:08:48.536Z,-1.69
2023-04-18T18:11:16.137Z,-1.56
2023-04-18T18:13:43.488Z,-1.45
2023-04-18T18:16:11.219Z,-1.37
2023-04-18T18:18:39.204Z,-1.23
2023-04-18T18:21:06.418Z,-1.17
2023-04-18T18:23:33.429Z,-1.08
2023-04-18T18:26:00.487Z,-1.04
2023-04-18T18:28:28.485Z,-0.93
2023-04-18T18:30:56.120Z,-0.83
2023-04-18T18:33:23.601Z,-0.82
2023-04-18T18:35:50.967Z,-0.89
2023-04-18T18:38:18.148Z,-0.98
2023-04-18T18:40:45.958Z,-1.15
2023-04-18T18:43:13.300Z,-1.24
2023-04-18T18:45:40.467Z,-1.40
2023-04-18T18:48:07.988Z,-1.47
2023-04-18T18:50:35.628Z,-1.53
2023-04-18T18:53:02.872Z,-1.57
2023-04-18T18:55:29.919Z,-1.66
2023-04-18T18:57:57.368Z,-1.81
2023-04-18T19:00:25.017Z,-1.92
2023-04-18T19:02:52.897Z,-2.07
2023-04-18T19:05:21.125Z,-2.16
2023-04-18T19:07:48.888Z,-2.23
2023-04-18T19:10:16.315Z,-2.27
2023-04-18T19:12:44.036Z,-2.27
2023-04-18T19:15:12.149Z,-2.28
2023-04-18T19:17:39.287Z,-2.27
2023-04-18T19:20:07.391Z,-2.26
2023-04-18T19:22:34.911Z,-2.27
2023-04-18T19:25:03.319Z,-2.28
2023-04-18T19:27:30.552Z,-2.28
2023-04-18T19:29:57.966Z,-2.28
2023-04-18T19:32:25.631Z,-2.28
2023-04-18T19:34:52.908Z,-2.27
2023-04-18T19:37:20.014Z,-2.22
2023-04-18T19:39:47.467Z,-2.20
2023-04-18T19:42:14.950Z,-2.19
2023-04-18T19:44:43.023Z,-2.24
2023-04-18T19:47:10.355Z,-2.28
2023-04-18T19:49:37.951Z,-2.26
2023-04-18T19:52:05.903Z,-2.30
2023-04-18T19:54:33.296Z,-2.34
2023-04-18T19:57:01.097Z,-2.42
2023-04-18T19:59:28.084Z,-2.43
2023-04-18T20:01:55.785Z,-2.41
2023-04-18T20:04:25.311Z,-2.37
2023-04-18T20:06:54.080Z,-2.37
2023-04-18T20:09:21.327Z,-2.38
2023-04-18T20:11:48.709Z,-2.43
2023-04-18T20:14:16.390Z,-2.57
2023-04-18T20:16:45.550Z,-2.60
2023-04-18T20:19:13.433Z,-2.77
2023-04-18T20:21:41.324Z,-2.77
2023-04-18T20:24:09.508Z,-2.89
2023-04-18T20:26:36.952Z,-3.10
2023-04-18T20:29:04.474Z,-3.23
2023-04-18T20:31:31.858Z,-3.46
2023-04-18T20:34:07.266Z,-3.78
2023-04-18T20:36:35.364Z,-3.88
2023-04-18T20:39:03.119Z,-3.88
2023-04-18T20:41:32.226Z,-4.01
2023-04-18T20:43:59.573Z,-4.10
2023-04-18T20:46:27.102Z,-4.18
2023-04-18T20:48:54.441Z,-4.17
2023-04-18T20:51:21.941Z,-4.18
2023-04-18T20:53:49.115Z,-4.23
2023-04-18T20:56:16.422Z,-4.28
2023-04-18T20:58:43.997Z,-4.22
2023-04-18T21:01:11.415Z,-4.16
2023-04-18T21:03:38.858Z,-4.07
2023-04-18T21:06:06.344Z,-4.13
2023-04-18T21:08:35.118Z,-4.17
2023-04-18T21:11:02.469Z,-4.36
2023-04-18T21:13:31.660Z,-4.56
2023-04-18T21:15:59.158Z,-4.78
2023-04-18T21:18:26.372Z,-4.98
2023-04-18T21:20:53.442Z,-5.24
2023-04-18T21:23:22.544Z,-5.42
2023-04-18T21:25:50.368Z,-5.57
2023-04-18T21:28:19.318Z,-5.74
2023-04-18T21:30:46.986Z,-5.90
2023-04-18T21:33:14.452Z,-6.07
2023-04-18T21:35:42.188Z,-6.20
2023-04-18T21:38:12.396Z,-6.32
2023-04-18T21:40:39.518Z,-6.42
2023-04-18T21:43:06.711Z,-6.54
2023-04-18T21:45:34.378Z,-6.65
2023-04-18T21:48:01.630Z,-6.72
2023-04-18T21:50:29.111Z,-6.83
2023-04-18T21:52:56.299Z,-6.86
2023-04-18T21:55:23.623Z,-6.92
2023-04-18T21:57:51.004Z,-6.96
2023-04-18T22:00:18.865Z,-7.02
2023-04-18T22:02:47.030Z,-7.07
2023-04-18T22:05:15.864Z,-7.13
2023-04-18T22:07:54.441Z,-7.15
2023-04-18T22:10:24.802Z,-7.21
2023-04-18T22:12:55.485Z,-7.26
2023-04-18T22:15:23.771Z,-7.31
2023-04-18T22:17:51.281Z,-7.30
2023-04-18T22:20:18.510Z,-7.31
2023-04-18T22:22:45.983Z,-7.33
2023-04-18T22:25:13.483Z,-7.31
2023-04-18T22:27:42.264Z,-7.34
2023-04-18T22:30:13.430Z,-7.29
2023-04-18T22:32:41.423Z,-7.27
2023-04-18T22:35:09.079Z,-7.31
2023-04-18T22:37:36.667Z,-7.26
2023-04-18T22:40:06.719Z,-7.26
2023-04-18T22:42:34.543Z,-7.22
2023-04-18T22:45:02.681Z,-7.19
2023-04-18T22:47:29.917Z,-7.09
2023-04-18T22:49:57.017Z,-7.03
2023-04-18T22:52:25.074Z,-7.00
2023-04-18T22:54:52.445Z,-6.99
2023-04-18T22:57:19.999Z,-7.03
2023-04-18T22:59:47.382Z,-7.03
2023-04-18T23:02:14.603Z,-6.98
2023-04-18T23:04:42.154Z,-6.87
2023-04-18T23:07:09.988Z,-6.82
2023-04-18T23:09:37.071Z,-6.81
2023-04-18T23:12:04.729Z,-6.81
2023-04-18T23:14:31.914Z,-6.82
2023-04-18T23:16:59.883Z,-6.83
2023-04-18T23:19:27.014Z,-6.85
2023-04-18T23:21:54.463Z,-6.86
2023-04-18T23:24:21.810Z,-6.90
2023-04-18T23:26:49.107Z,-6.93
2023-04-18T23:29:17.043Z,-6.99
2023-04-18T23:31:44.440Z,-6.98
2023-04-18T23:34:11.834Z,-6.95
2023-04-18T23:36:40.129Z,-6.91
2023-04-18T23:39:08.411Z,-6.85
2023-04-18T23:41:35.750Z,-6.84
2023-04-18T23:44:02.840Z,-6.85
2023-04-18T23:46:31.105Z,-6.84
2023-04-18T23:48:58.184Z,-6.79
2023-04-18T23:51:27.786Z,-6.68
2023-04-18T23:53:55.037Z,-6.54
2023-04-18T23:56:22.881Z,-6.37
2023-04-18T23:58:50.918Z,-6.16
